Willsboro, New York
Current Conditions -  °F | °C
As of 10:54 PM on Sunday 25 Jan 2015 (Local Time) from KBTV Reporting Station
Clear Clear  
Wind Chill: -6°   Ceiling: Unl
Heat Index:   Visibility: 10mi
Dew Point: -6°   Wind: 5mph
Humidity: 66%   Direction: 80°E
Pressure: 30.1"   Gusts: NA
Location:  44.36°N, 73.39°W
Report Text: KBTV 260354Z 08004KT 10SM CLR M16/M21 A3010 RMK AO2 SLP199 T11611211
Loading
Personal Weather Stations






























Interactive Weather Map New forecast layout! Learn more

10-Day Weather Forecast

Advertisements
Track Severe Weather on mobile